createdAt,value
2022-10-19T00:01:25.541Z,4.20
2022-10-19T00:03:56.328Z,4.10
2022-10-19T00:06:30.855Z,4.40
2022-10-19T00:09:03.078Z,4.70
2022-10-19T00:11:33.908Z,4.50
2022-10-19T00:14:03.509Z,5.20
2022-10-19T00:16:36.299Z,4.70
2022-10-19T00:19:08.837Z,4.60
2022-10-19T00:21:37.996Z,4.50
2022-10-19T00:24:07.853Z,4.80
2022-10-19T00:26:36.777Z,4.90
2022-10-19T00:29:06.279Z,5.00
2022-10-19T00:31:35.378Z,4.70
2022-10-19T00:34:03.975Z,4.90
2022-10-19T00:36:35.724Z,5.10
2022-10-19T00:39:06.514Z,4.60
2022-10-19T00:41:37.505Z,5.50
2022-10-19T00:44:08.233Z,5.10
2022-10-19T00:46:40.250Z,4.80
2022-10-19T00:49:13.912Z,5.20
2022-10-19T00:51:46.561Z,4.90
2022-10-19T00:54:17.111Z,4.80
2022-10-19T00:56:49.485Z,5.10
2022-10-19T00:59:20.899Z,5.00
2022-10-19T01:01:50.341Z,4.80
2022-10-19T01:04:21.809Z,4.70
2022-10-19T01:09:19.473Z,4.80
2022-10-19T01:11:56.963Z,4.90
2022-10-19T01:14:47.360Z,5.50
2022-10-19T01:17:24.876Z,4.80
2022-10-19T01:19:59.383Z,4.70
2022-10-19T01:23:00.878Z,4.80
2022-10-19T01:26:00.589Z,4.90
2022-10-19T01:28:32.160Z,4.80
2022-10-19T01:31:19.835Z,4.80
2022-10-19T01:34:05.107Z,5.10
2022-10-19T01:36:39.634Z,5.00
2022-10-19T01:39:53.988Z,5.20
2022-10-19T01:42:31.829Z,5.60
2022-10-19T01:45:09.823Z,5.10
2022-10-19T01:48:01.007Z,5.60
2022-10-19T01:50:36.245Z,5.40
2022-10-19T01:53:08.518Z,5.70
2022-10-19T01:55:42.963Z,5.90
2022-10-19T01:58:20.637Z,5.70
2022-10-19T02:00:52.973Z,5.50
2022-10-19T02:03:23.767Z,5.70
2022-10-19T02:05:54.580Z,5.50
2022-10-19T02:08:29.656Z,5.90
2022-10-19T02:11:00.425Z,6.20
2022-10-19T02:13:30.879Z,6.00
2022-10-19T02:16:03.775Z,6.60
2022-10-19T02:18:37.779Z,6.20
2022-10-19T02:21:07.178Z,6.10
2022-10-19T02:23:36.792Z,6.40
2022-10-19T02:26:06.439Z,6.80
2022-10-19T02:28:36.111Z,6.70
2022-10-19T02:31:05.686Z,6.50
2022-10-19T02:33:34.506Z,6.20
2022-10-19T02:36:03.397Z,6.20
2022-10-19T02:38:32.184Z,5.80
2022-10-19T02:41:00.971Z,6.10
2022-10-19T02:43:32.823Z,5.80
2022-10-19T02:46:23.638Z,6.40
2022-10-19T02:48:53.554Z,6.20
2022-10-19T02:51:30.536Z,7.00
2022-10-19T02:54:01.241Z,6.50
2022-10-19T02:56:34.027Z,6.30
2022-10-19T02:59:04.203Z,6.00
2022-10-19T03:01:32.759Z,7.00
2022-10-19T03:04:01.343Z,6.60
2022-10-19T03:06:29.933Z,6.70
2022-10-19T03:08:58.610Z,6.70
2022-10-19T03:11:27.194Z,7.20
2022-10-19T03:13:56.235Z,6.90
2022-10-19T03:16:24.879Z,6.80
2022-10-19T03:18:53.363Z,7.00
2022-10-19T03:21:22.254Z,7.20
2022-10-19T03:23:51.044Z,7.40
2022-10-19T03:26:19.628Z,7.40
2022-10-19T03:28:48.359Z,7.20
2022-10-19T03:31:17.100Z,7.40
2022-10-19T03:33:46.201Z,7.50
2022-10-19T03:36:25.350Z,8.30
2022-10-19T03:38:58.516Z,7.00
2022-10-19T03:41:29.660Z,7.50
2022-10-19T03:46:32.569Z,7.60
2022-10-19T03:49:01.459Z,7.80
2022-10-19T03:51:31.674Z,7.60
2022-10-19T03:54:03.675Z,7.50
2022-10-19T03:56:34.009Z,7.90
2022-10-19T03:59:05.043Z,7.50
2022-10-19T04:01:39.038Z,7.50
2022-10-19T04:04:12.450Z,7.00
2022-10-19T04:06:43.409Z,7.20
2022-10-19T04:09:14.743Z,7.10
2022-10-19T04:11:43.799Z,7.20
2022-10-19T04:14:22.772Z,6.80
2022-10-19T04:17:02.591Z,6.40
2022-10-19T04:19:31.982Z,6.80
2022-10-19T04:22:00.869Z,6.70
2022-10-19T04:24:29.657Z,6.90
2022-10-19T04:26:58.198Z,7.00
2022-10-19T04:29:29.800Z,7.00
2022-10-19T04:32:00.020Z,7.00
2022-10-19T04:34:28.408Z,7.60
2022-10-19T04:36:59.779Z,7.60
2022-10-19T04:39:28.538Z,7.90
2022-10-19T04:41:57.323Z,7.50
2022-10-19T04:44:25.811Z,7.50
2022-10-19T04:46:54.389Z,7.60
2022-10-19T04:49:23.179Z,7.10
2022-10-19T04:51:51.558Z,8.20
2022-10-19T04:54:20.142Z,7.80
2022-10-19T04:56:48.929Z,8.50
2022-10-19T04:59:17.409Z,7.70
2022-10-19T05:01:47.214Z,8.50
2022-10-19T05:04:16.141Z,7.80
2022-10-19T05:06:45.063Z,9.40
2022-10-19T05:09:13.897Z,8.20
2022-10-19T05:11:42.486Z,8.50
2022-10-19T05:14:11.170Z,8.00
2022-10-19T05:16:39.860Z,7.60
2022-10-19T05:19:08.541Z,7.70
2022-10-19T05:21:37.024Z,8.30
2022-10-19T05:24:05.812Z,8.30
2022-10-19T05:26:34.502Z,8.40
2022-10-19T05:29:04.795Z,8.60
2022-10-19T05:31:35.152Z,7.70
2022-10-19T05:34:04.740Z,7.30
2022-10-19T05:36:37.952Z,8.10
2022-10-19T05:39:12.304Z,6.90
2022-10-19T05:41:43.105Z,7.60
2022-10-19T05:44:18.739Z,7.50
2022-10-19T05:46:48.258Z,7.70
2022-10-19T05:49:19.208Z,7.40
2022-10-19T05:51:48.703Z,8.10
2022-10-19T05:54:17.627Z,7.70
2022-10-19T05:56:47.103Z,9.10
2022-10-19T05:59:18.919Z,8.40
2022-10-19T06:01:48.729Z,8.30
2022-10-19T06:06:50.858Z,9.40
2022-10-19T06:09:19.757Z,10.30
2022-10-19T06:11:48.540Z,9.20
2022-10-19T06:14:17.225Z,9.60
2022-10-19T06:16:48.680Z,11.30
2022-10-19T06:19:17.363Z,11.30
2022-10-19T06:21:46.368Z,11.20
2022-10-19T06:24:15.049Z,11.70
2022-10-19T06:26:43.628Z,11.00
2022-10-19T06:29:12.432Z,11.90
2022-10-19T06:31:41.358Z,12.40
2022-10-19T06:34:09.831Z,13.10
2022-10-19T06:36:38.493Z,13.00
2022-10-19T06:39:06.792Z,13.20
2022-10-19T06:41:35.644Z,13.20
2022-10-19T06:44:19.483Z,13.80
2022-10-19T06:46:48.118Z,12.40
2022-10-19T06:49:16.656Z,14.00
2022-10-19T06:51:45.444Z,13.90
2022-10-19T06:54:13.978Z,15.00
2022-10-19T06:56:42.665Z,15.30
2022-10-19T06:59:14.824Z,15.00
2022-10-19T07:01:43.886Z,14.60
2022-10-19T07:04:12.459Z,14.20
2022-10-19T07:06:40.942Z,15.40
2022-10-19T07:09:09.627Z,15.00
2022-10-19T07:11:42.390Z,15.20
2022-10-19T07:14:14.562Z,14.80
2022-10-19T07:16:43.059Z,15.10
2022-10-19T07:19:13.752Z,16.80
2022-10-19T07:21:44.349Z,16.20
2022-10-19T07:24:12.806Z,16.10
2022-10-19T07:26:41.286Z,15.60
2022-10-19T07:29:09.974Z,17.40
2022-10-19T07:31:38.459Z,18.00
2022-10-19T07:34:07.147Z,16.80
2022-10-19T07:36:36.445Z,16.80
2022-10-19T07:39:07.110Z,16.80
2022-10-19T07:41:35.763Z,16.60
2022-10-19T07:44:04.889Z,16.20
2022-10-19T07:46:34.455Z,15.70
2022-10-19T07:49:05.103Z,16.50
2022-10-19T07:51:34.305Z,15.80
2022-10-19T07:54:03.188Z,16.20
2022-10-19T07:56:32.589Z,16.00
2022-10-19T07:59:02.105Z,14.90
2022-10-19T08:01:34.020Z,15.00
2022-10-19T08:06:51.505Z,15.20
2022-10-19T08:09:40.452Z,16.20
2022-10-19T08:12:12.479Z,15.50
2022-10-19T08:14:43.368Z,14.40
2022-10-19T08:17:16.973Z,15.30
2022-10-19T08:19:47.331Z,15.10
2022-10-19T08:22:15.981Z,15.30
2022-10-19T08:24:44.666Z,14.80
2022-10-19T08:27:15.097Z,15.20
2022-10-19T08:29:43.485Z,15.40
2022-10-19T08:32:12.412Z,15.30
2022-10-19T08:34:41.615Z,14.70
2022-10-19T08:37:20.010Z,15.80
2022-10-19T08:39:54.707Z,14.80
2022-10-19T08:42:34.840Z,15.20
2022-10-19T08:45:19.316Z,14.50
2022-10-19T08:48:18.008Z,14.40
2022-10-19T08:50:48.333Z,14.40
2022-10-19T08:53:29.111Z,13.90
2022-10-19T08:59:38.807Z,13.00
2022-10-19T09:02:38.388Z,13.80
2022-10-19T09:05:34.754Z,12.90
2022-10-19T09:08:03.412Z,12.60
2022-10-19T09:10:43.149Z,11.40
2022-10-19T09:13:46.952Z,12.00
2022-10-19T09:16:29.063Z,12.10
2022-10-19T09:18:58.069Z,11.20
2022-10-19T09:21:47.433Z,12.30
2022-10-19T09:24:36.400Z,10.60
2022-10-19T09:27:06.372Z,11.80
2022-10-19T09:29:56.803Z,11.80
2022-10-19T09:32:32.686Z,10.90
2022-10-19T09:35:05.936Z,11.10
2022-10-19T09:37:42.195Z,10.80
2022-10-19T09:40:26.466Z,11.50
2022-10-19T09:42:59.904Z,10.80
2022-10-19T09:45:48.314Z,10.60
2022-10-19T09:48:32.776Z,10.90
2022-10-19T09:51:11.287Z,10.80
2022-10-19T09:53:50.519Z,10.40
2022-10-19T09:56:26.788Z,10.10
2022-10-19T09:58:59.335Z,9.50
2022-10-19T10:01:43.079Z,9.00
2022-10-19T10:04:17.964Z,9.30
2022-10-19T10:06:48.940Z,10.30
2022-10-19T10:09:19.654Z,10.00
2022-10-19T10:11:51.335Z,9.70
2022-10-19T10:14:54.357Z,9.80
2022-10-19T10:17:30.625Z,9.30
2022-10-19T10:19:59.221Z,8.40
2022-10-19T10:22:31.265Z,8.20
2022-10-19T10:25:00.021Z,8.40
2022-10-19T10:27:35.276Z,8.80
2022-10-19T10:30:16.990Z,8.80
2022-10-19T10:32:53.763Z,8.70
2022-10-19T10:35:36.217Z,8.00
2022-10-19T10:38:09.780Z,7.30
2022-10-19T10:40:40.582Z,8.40
2022-10-19T10:43:21.939Z,8.40
2022-10-19T10:45:55.602Z,8.00
2022-10-19T10:50:58.298Z,7.80
2022-10-19T10:53:45.517Z,8.20
2022-10-19T10:56:29.717Z,8.00
2022-10-19T10:59:05.305Z,7.70
2022-10-19T11:01:40.458Z,7.20
2022-10-19T11:04:17.753Z,8.50
2022-10-19T11:06:58.000Z,7.90
2022-10-19T11:09:31.619Z,7.30
2022-10-19T11:12:04.921Z,8.50
2022-10-19T11:14:39.648Z,7.50
2022-10-19T11:17:17.253Z,7.80
2022-10-19T11:19:46.113Z,7.50
2022-10-19T11:22:36.272Z,6.60
2022-10-19T11:25:21.942Z,7.30
2022-10-19T11:28:08.902Z,7.10
2022-10-19T11:31:02.368Z,7.00
2022-10-19T11:33:40.347Z,6.60
2022-10-19T11:36:43.280Z,6.60
2022-10-19T11:39:23.622Z,7.10
2022-10-19T11:42:23.750Z,6.20
2022-10-19T11:45:03.394Z,6.40
2022-10-19T11:47:51.124Z,5.80
2022-10-19T11:50:54.207Z,7.30
2022-10-19T11:53:42.362Z,5.90
2022-10-19T11:56:27.704Z,6.30
2022-10-19T11:59:24.177Z,6.70
2022-10-19T12:02:02.104Z,6.20
2022-10-19T12:04:58.120Z,6.50
2022-10-19T12:07:52.085Z,6.50
2022-10-19T12:10:34.927Z,6.20
2022-10-19T12:13:09.201Z,6.10
2022-10-19T12:15:53.836Z,6.70
2022-10-19T12:18:46.839Z,6.70
2022-10-19T12:21:20.644Z,6.50
2022-10-19T12:23:50.190Z,6.20
2022-10-19T12:26:22.581Z,6.00
2022-10-19T12:28:55.868Z,6.20
2022-10-19T12:31:26.769Z,5.90
2022-10-19T12:34:01.876Z,5.80
2022-10-19T12:36:43.688Z,5.70
2022-10-19T12:39:20.982Z,6.40
2022-10-19T12:42:04.407Z,6.50
2022-10-19T12:45:08.682Z,6.10
2022-10-19T12:47:37.541Z,6.20
2022-10-19T12:50:07.709Z,6.30
2022-10-19T12:52:49.126Z,6.60
2022-10-19T12:55:35.140Z,6.40
2022-10-19T12:58:20.188Z,6.20
2022-10-19T13:01:04.932Z,6.00
2022-10-19T13:03:37.256Z,5.70
2022-10-19T13:06:13.395Z,6.10
2022-10-19T13:09:04.560Z,20.80
2022-10-19T13:14:06.778Z,6.10
